SBOSBO DBV / LDDU
Speedbird OnlineSpeedbird Online DBV / LDDU

Dubrovnik Airport
13:39 10°C

Location Dubrovnik, Croatia
Latitude: 42.5614013671875
Longitude: 18.268199920654297
Web Wikipedia
Altitude 161 Meter / 527 Feet
Distance 1,690 KM / 1,050 Miles
from London.
Time Zone UTC +1 hours (Europe/Zagreb)
Codes IATA: DBV
ICAO: LDDU
Currency £1 equals HRK 8.70
Runways
RunwayLength (m)Surface
113300Asphalt
293300Asphalt
Radio
TypeDescriptionFrequency
APPAPP123.6
TWRTWR129.5
Live ATC
METAR LDDU 311230Z 03018G34KT 340V070 9999 FEW040 09/M07 Q1018 BECMG VRB15KT TEMPO VRB15G30KT
TAF TAF LDDU 311125Z 3112/0112 VRB12KT 9999 SCT060 TX10/3112Z TN04/0106Z PROB40 TEMPO 3112/3118 VRB15G30KT PROB30 TEMPO 3112/3118 35014KT BECMG 3118/3120 02012KT BECMG 0109/0111 16006KT
Weather As Of 31 Jan 2023 13:39
Description Few clouds
Wind 19 km/h from North (0°)
Cloud Cover 20%
Precipitation Rain: none, Snow: none
Sunrise 07:02
Sunset 16:57
Lounges Airport Business Lounge , International Departures
Rotations During the last 90 days there were
14 flights from LGW
14 flights to LGW



Support Speedbird Online

© 2017-2023 Speedbird Online